Time;durP1;ratioP1;P1;durP2;ratioP2;P2;SDS_P1;SDS_P2;PMS_P1;PMS_P2;Temp;Humidity;BMP_temperature;BMP_pressure;BME280_temperature;BME280_humidity;BME280_pressure;Samples;Min_cycle;Max_cycle;Signal;HPM_P1;HPM_P2
2021/06/08 00:00:21;;;;;;;6.60;4.50;;;15.00;99.90;;;;;;5018837;28;20567;-59
2021/06/08 00:02:48;;;;;;;7.13;4.67;;;15.00;99.90;;;;;;5010873;28;20215;-60
2021/06/08 00:05:14;;;;;;;6.50;4.03;;;14.90;99.90;;;;;;5027873;28;20476;-59
2021/06/08 00:07:40;;;;;;;4.50;3.20;;;14.90;99.90;;;;;;5030333;28;20461;-59
2021/06/08 00:10:06;;;;;;;6.57;4.00;;;14.90;99.90;;;;;;5026941;28;20206;-59
2021/06/08 00:12:33;;;;;;;9.73;3.50;;;14.80;99.90;;;;;;5036946;28;20443;-59
2021/06/08 00:14:58;;;;;;;3.97;3.30;;;14.70;99.90;;;;;;5011226;28;20426;-60
2021/06/08 00:17:24;;;;;;;4.33;3.20;;;14.70;99.90;;;;;;5008417;28;20500;-59
2021/06/08 00:19:50;;;;;;;4.93;2.23;;;14.70;99.90;;;;;;5025717;28;20188;-59
2021/06/08 00:22:16;;;;;;;10.47;2.77;;;14.70;99.90;;;;;;5029027;28;20195;-57
2021/06/08 00:24:41;;;;;;;5.77;3.10;;;14.60;99.90;;;;;;5019995;28;20666;-59
2021/06/08 00:27:08;;;;;;;5.70;2.60;;;14.60;99.90;;;;;;5023214;28;20443;-59
2021/06/08 00:29:34;;;;;;;4.13;2.40;;;14.60;99.90;;;;;;5025264;28;20211;-60
2021/06/08 00:31:59;;;;;;;2.40;2.20;;;14.50;99.90;;;;;;5018240;28;20478;-60
2021/06/08 00:34:25;;;;;;;2.70;2.50;;;14.40;99.90;;;;;;5017417;28;20422;-59
2021/06/08 00:36:51;;;;;;;5.60;2.70;;;14.50;99.90;;;;;;5031237;28;20175;-59
2021/06/08 00:39:16;;;;;;;3.17;2.20;;;14.50;99.90;;;;;;5018500;28;20192;-59
2021/06/08 00:41:44;;;;;;;3.73;2.70;;;14.40;99.90;;;;;;5025021;28;20246;-59
2021/06/08 00:44:13;;;;;;;4.40;2.73;;;14.40;99.90;;;;;;5008537;28;20238;-59
2021/06/08 00:46:39;;;;;;;10.53;2.30;;;14.50;99.90;;;;;;5029597;28;20437;-59
2021/06/08 00:49:05;;;;;;;4.33;2.40;;;14.50;99.90;;;;;;5028366;28;20473;-58
2021/06/08 00:51:30;;;;;;;6.53;3.40;;;14.50;99.90;;;;;;5025269;28;20438;-59
2021/06/08 00:53:56;;;;;;;5.27;2.23;;;14.40;99.90;;;;;;5029164;28;20228;-59
2021/06/08 00:56:22;;;;;;;2.87;2.53;;;14.50;99.90;;;;;;5019038;28;20267;-59
2021/06/08 00:58:47;;;;;;;3.73;2.90;;;14.40;99.90;;;;;;5028225;28;20184;-59
2021/06/08 01:01:14;;;;;;;4.37;2.63;;;14.40;99.90;;;;;;5024483;28;20675;-59
2021/06/08 01:03:39;;;;;;;10.83;2.80;;;14.40;99.90;;;;;;5027444;28;20208;-59
2021/06/08 01:06:05;;;;;;;3.47;3.00;;;14.40;99.90;;;;;;5029304;28;20967;-59
2021/06/08 01:08:31;;;;;;;5.57;2.60;;;14.40;99.90;;;;;;5012022;28;20720;-59
2021/06/08 01:10:56;;;;;;;4.27;3.10;;;14.40;99.90;;;;;;4997416;28;20187;-59
2021/06/08 01:13:26;;;;;;;4.00;2.70;;;14.40;99.90;;;;;;5026966;28;20195;-60
2021/06/08 01:15:52;;;;;;;3.17;2.43;;;14.40;99.90;;;;;;5014017;28;20181;-59
2021/06/08 01:18:17;;;;;;;4.10;2.60;;;14.40;99.90;;;;;;5010163;28;20425;-59
2021/06/08 01:20:44;;;;;;;3.97;2.43;;;14.40;99.90;;;;;;5024501;28;20454;-59
2021/06/08 01:23:09;;;;;;;11.03;2.70;;;14.40;99.90;;;;;;5024720;28;20413;-59
2021/06/08 01:25:35;;;;;;;4.30;3.57;;;14.40;99.90;;;;;;5020135;28;20538;-59
2021/06/08 01:28:02;;;;;;;6.13;3.20;;;14.40;99.90;;;;;;5028138;28;20652;-59
2021/06/08 01:30:29;;;;;;;4.33;3.47;;;14.40;99.90;;;;;;5029452;28;20426;-59
2021/06/08 01:32:56;;;;;;;4.37;3.50;;;14.40;99.90;;;;;;5024893;28;20637;-59
2021/06/08 01:35:23;;;;;;;4.03;3.17;;;14.40;99.90;;;;;;5030379;28;20403;-59
2021/06/08 01:37:49;;;;;;;3.50;2.80;;;14.40;99.90;;;;;;5022885;28;20438;-59
2021/06/08 01:40:17;;;;;;;4.90;2.30;;;14.30;99.90;;;;;;5022907;28;21000;-59
2021/06/08 01:42:43;;;;;;;3.90;2.50;;;14.30;99.90;;;;;;5025297;28;20814;-60
2021/06/08 01:45:13;;;;;;;5.53;3.00;;;14.30;99.90;;;;;;5020804;28;20747;-60
2021/06/08 01:47:39;;;;;;;3.37;2.70;;;14.30;99.90;;;;;;5023433;28;20585;-59
2021/06/08 01:50:05;;;;;;;3.93;2.47;;;14.30;99.90;;;;;;5026011;28;20538;-58
2021/06/08 01:52:58;;;;;;;9.83;3.20;;;14.30;99.90;;;;;;5031226;28;20204;-59
2021/06/08 01:55:37;;;;;;;8.83;3.33;;;14.30;99.90;;;;;;5003178;28;20359;-60
2021/06/08 01:58:14;;;;;;;3.83;3.43;;;14.30;99.90;;;;;;5004827;28;20430;-59
2021/06/08 02:00:58;;;;;;;4.60;3.23;;;14.30;99.90;;;;;;5008180;28;20961;-60
2021/06/08 02:03:35;;;;;;;3.57;3.23;;;14.30;99.90;;;;;;5027522;28;20637;-59
2021/06/08 02:06:35;;;;;;;3.50;2.47;;;14.30;99.90;;;;;;5030909;28;20443;-59
2021/06/08 02:09:20;;;;;;;3.03;2.73;;;14.30;99.90;;;;;;4991571;28;20546;-59
2021/06/08 02:11:56;;;;;;;4.30;3.13;;;14.30;99.90;;;;;;5030184;28;20433;-59
2021/06/08 02:14:38;;;;;;;9.40;3.50;;;14.30;99.90;;;;;;5007856;28;20521;-59
2021/06/08 02:17:22;;;;;;;3.97;3.20;;;14.20;99.90;;;;;;5031146;28;20453;-59
2021/06/08 02:19:51;;;;;;;3.73;2.87;;;14.30;99.90;;;;;;5007268;28;20521;-58
2021/06/08 02:22:22;;;;;;;6.97;3.73;;;14.20;99.90;;;;;;5034108;28;20468;-60
2021/06/08 02:24:48;;;;;;;4.37;3.30;;;14.30;99.90;;;;;;5003743;28;20457;-58
2021/06/08 02:27:17;;;;;;;5.70;3.60;;;14.30;99.90;;;;;;5030085;28;21043;-59
2021/06/08 02:29:46;;;;;;;6.27;3.63;;;14.30;99.90;;;;;;5029987;28;20492;-60
2021/06/08 02:32:13;;;;;;;3.83;3.43;;;14.30;99.90;;;;;;5026860;28;20594;-59
2021/06/08 02:34:41;;;;;;;3.87;3.43;;;14.30;99.90;;;;;;5023221;28;20444;-59
2021/06/08 02:37:10;;;;;;;8.17;3.70;;;14.30;99.90;;;;;;4999926;28;20438;-60
2021/06/08 02:39:38;;;;;;;4.43;3.23;;;14.30;99.90;;;;;;5033613;28;20927;-59
2021/06/08 02:42:05;;;;;;;5.00;3.23;;;14.30;99.90;;;;;;5004801;28;20427;-59
2021/06/08 02:44:31;;;;;;;4.23;3.67;;;14.20;99.90;;;;;;5020540;28;20951;-59
2021/06/08 02:46:57;;;;;;;6.60;3.70;;;14.20;99.90;;;;;;5011098;28;20466;-59
2021/06/08 02:49:24;;;;;;;5.03;3.67;;;14.20;99.90;;;;;;5022943;28;20184;-59
2021/06/08 02:51:49;;;;;;;3.90;3.43;;;14.20;99.90;;;;;;5018541;28;20493;-59
2021/06/08 02:54:17;;;;;;;4.07;3.53;;;14.10;99.90;;;;;;5028878;28;20768;-59
2021/06/08 02:56:43;;;;;;;4.27;3.67;;;14.10;99.90;;;;;;5014202;28;20203;-59
2021/06/08 02:59:10;;;;;;;5.47;3.70;;;14.10;99.90;;;;;;5014213;28;20431;-59
2021/06/08 03:01:41;;;;;;;4.23;3.80;;;14.10;99.90;;;;;;5013059;28;20430;-59
2021/06/08 03:04:10;;;;;;;4.70;3.40;;;14.10;99.90;;;;;;5008258;28;20462;-59
2021/06/08 03:06:42;;;;;;;5.37;3.93;;;14.10;99.90;;;;;;5029017;28;20527;-59
2021/06/08 03:09:12;;;;;;;5.77;3.87;;;14.20;99.90;;;;;;5020993;28;20466;-59
2021/06/08 03:11:49;;;;;;;8.93;4.33;;;14.20;99.90;;;;;;5013530;28;20420;-60
2021/06/08 03:14:16;;;;;;;4.93;3.70;;;14.20;99.90;;;;;;5015192;28;20507;-60
2021/06/08 03:16:48;;;;;;;10.13;4.30;;;14.20;99.90;;;;;;5019446;28;20801;-58
2021/06/08 03:19:17;;;;;;;8.17;4.13;;;14.20;99.90;;;;;;5012767;28;20454;-60
2021/06/08 03:21:43;;;;;;;5.70;4.43;;;14.20;99.90;;;;;;5010292;28;20847;-59
2021/06/08 03:24:14;;;;;;;6.17;4.50;;;14.20;99.90;;;;;;5028827;28;20445;-63
2021/06/08 03:26:42;;;;;;;5.80;4.60;;;14.20;99.90;;;;;;5036131;28;20445;-59
2021/06/08 03:29:12;;;;;;;5.90;4.53;;;14.30;99.90;;;;;;5034076;28;20515;-60
2021/06/08 03:31:45;;;;;;;7.73;4.67;;;14.30;99.90;;;;;;5012170;28;20426;-60
2021/06/08 03:34:15;;;;;;;4.30;3.90;;;14.30;99.90;;;;;;5032151;28;20524;-58
2021/06/08 03:36:48;;;;;;;7.27;4.93;;;14.30;99.90;;;;;;5020198;28;20493;-59
2021/06/08 03:39:15;;;;;;;6.50;4.30;;;14.30;99.90;;;;;;5033762;28;20440;-60
2021/06/08 03:41:45;;;;;;;6.03;4.27;;;14.30;99.90;;;;;;5004714;28;20533;-59
2021/06/08 03:44:16;;;;;;;5.70;4.03;;;14.30;99.90;;;;;;5014350;28;20459;-60
2021/06/08 03:46:44;;;;;;;4.20;3.80;;;14.30;99.90;;;;;;5030205;28;20438;-59
2021/06/08 03:49:12;;;;;;;5.30;4.03;;;14.30;99.90;;;;;;5029083;28;20986;-59
2021/06/08 03:51:38;;;;;;;4.83;3.50;;;14.30;99.90;;;;;;5026003;28;20431;-59
2021/06/08 03:54:04;;;;;;;5.07;3.73;;;14.30;99.90;;;;;;5029019;28;20430;-60
2021/06/08 03:56:30;;;;;;;6.53;4.00;;;14.30;99.90;;;;;;5010731;28;20179;-59
2021/06/08 03:58:57;;;;;;;8.43;4.10;;;14.30;99.90;;;;;;5028992;28;20643;-60
2021/06/08 04:01:23;;;;;;;4.77;4.13;;;14.30;99.90;;;;;;5025175;28;20484;-59
2021/06/08 04:04:08;;;;;;;6.37;3.90;;;14.30;99.90;;;;;;4979206;28;20480;-57
2021/06/08 04:06:35;;;;;;;9.17;4.20;;;14.30;99.90;;;;;;5026130;28;20453;-58
2021/06/08 04:09:08;;;;;;;6.57;4.57;;;14.30;99.90;;;;;;5006903;28;20967;-58
2021/06/08 04:11:35;;;;;;;6.40;5.43;;;14.30;99.90;;;;;;5006800;28;20494;-58
2021/06/08 04:14:01;;;;;;;8.80;5.70;;;14.30;99.90;;;;;;5016787;28;20515;-57
2021/06/08 04:16:27;;;;;;;9.53;6.03;;;14.30;99.90;;;;;;5020335;28;20454;-59
2021/06/08 04:18:53;;;;;;;9.97;6.87;;;14.30;99.90;;;;;;5019431;28;20482;-59
2021/06/08 04:21:27;;;;;;;9.00;6.20;;;14.30;99.90;;;;;;5019751;28;20442;-56
2021/06/08 04:24:00;;;;;;;11.03;6.53;;;14.30;99.90;;;;;;5005966;28;21060;-55
2021/06/08 04:26:27;;;;;;;10.47;7.27;;;14.40;99.90;;;;;;5021236;28;20847;-56
2021/06/08 04:28:54;;;;;;;12.87;8.10;;;14.40;99.90;;;;;;5020756;28;20458;-59
2021/06/08 04:31:24;;;;;;;12.60;8.20;;;14.50;99.90;;;;;;5021434;28;20482;-60
2021/06/08 04:33:51;;;;;;;11.27;7.20;;;14.60;99.90;;;;;;5019785;28;20446;-59
2021/06/08 04:36:18;;;;;;;9.87;7.00;;;14.60;99.90;;;;;;5000761;28;20443;-59
2021/06/08 04:38:45;;;;;;;10.10;7.57;;;14.60;99.90;;;;;;5020357;28;20443;-59
2021/06/08 04:41:11;;;;;;;9.63;7.20;;;14.70;99.90;;;;;;5004418;28;20438;-58
2021/06/08 04:43:37;;;;;;;13.50;8.10;;;14.70;99.90;;;;;;5019781;28;20535;-59
2021/06/08 04:46:08;;;;;;;10.07;7.07;;;14.80;99.90;;;;;;5022316;28;22570;-59
2021/06/08 04:48:34;;;;;;;10.47;7.50;;;14.80;99.90;;;;;;5016057;28;20207;-59
2021/06/08 04:51:00;;;;;;;7.87;6.70;;;14.80;99.90;;;;;;5014098;28;20433;-59
2021/06/08 04:53:26;;;;;;;10.70;8.10;;;14.80;99.90;;;;;;5019043;28;20985;-60
2021/06/08 04:55:53;;;;;;;10.43;7.67;;;14.80;99.90;;;;;;5024822;28;20435;-60
2021/06/08 04:58:19;;;;;;;10.73;6.83;;;14.90;99.90;;;;;;5023689;28;20724;-59
2021/06/08 05:01:12;;;;;;;9.40;7.50;;;14.90;99.90;;;;;;5018388;28;20458;-61
2021/06/08 05:03:44;;;;;;;9.27;7.17;;;14.90;99.90;;;;;;5027701;28;20507;-59
2021/06/08 05:06:12;;;;;;;11.70;6.47;;;14.90;99.90;;;;;;5022215;28;20426;-59
2021/06/08 05:08:42;;;;;;;11.30;6.60;;;14.90;99.90;;;;;;5024652;28;20559;-59
2021/06/08 05:11:20;;;;;;;8.93;6.20;;;15.00;99.90;;;;;;5026612;28;20476;-60
2021/06/08 05:13:48;;;;;;;8.67;5.97;;;15.00;99.90;;;;;;5025816;28;20979;-60
2021/06/08 05:16:16;;;;;;;9.50;6.20;;;15.00;99.90;;;;;;5026600;28;20442;-61
2021/06/08 05:18:44;;;;;;;7.03;6.00;;;15.00;99.90;;;;;;5023274;28;20982;-59
2021/06/08 05:21:11;;;;;;;10.27;6.43;;;15.10;99.90;;;;;;5016342;28;20496;-59
2021/06/08 05:23:38;;;;;;;9.67;6.33;;;15.10;99.90;;;;;;5022733;28;20461;-59
2021/06/08 05:26:04;;;;;;;11.17;6.13;;;15.10;99.90;;;;;;5013817;28;20642;-60
2021/06/08 05:28:32;;;;;;;6.93;4.80;;;15.20;99.90;;;;;;5016980;28;20802;-60
2021/06/08 05:30:58;;;;;;;7.27;5.20;;;15.20;99.90;;;;;;5025866;28;20902;-60
2021/06/08 05:33:24;;;;;;;4.57;3.90;;;15.20;99.90;;;;;;5027985;28;20536;-60
2021/06/08 05:35:54;;;;;;;4.37;3.63;;;15.30;99.90;;;;;;5019163;28;20175;-60
2021/06/08 05:38:34;;;;;;;3.93;3.53;;;15.30;99.90;;;;;;5018029;28;20873;-60
2021/06/08 05:41:10;;;;;;;4.10;3.63;;;15.30;99.90;;;;;;5017659;28;20507;-59
2021/06/08 05:43:40;;;;;;;5.87;4.27;;;15.30;99.90;;;;;;5018142;28;20472;-60
2021/06/08 05:46:07;;;;;;;8.13;4.47;;;15.40;99.90;;;;;;5024423;28;20844;-58
2021/06/08 05:48:34;;;;;;;4.60;3.70;;;15.40;99.90;;;;;;5026170;28;20469;-60
2021/06/08 05:51:04;;;;;;;4.50;3.70;;;15.50;99.90;;;;;;5028556;28;20451;-60
2021/06/08 05:53:30;;;;;;;7.10;4.43;;;15.50;99.90;;;;;;5010993;28;20700;-60
2021/06/08 05:55:57;;;;;;;5.17;4.07;;;15.50;99.90;;;;;;5015067;28;21029;-59
2021/06/08 05:58:27;;;;;;;12.83;3.90;;;15.50;99.90;;;;;;5018575;28;20629;-60
2021/06/08 06:00:55;;;;;;;4.60;3.73;;;15.60;99.90;;;;;;5018596;28;20449;-60
2021/06/08 06:03:23;;;;;;;5.53;3.83;;;15.60;99.90;;;;;;5014798;28;20595;-60
2021/06/08 06:05:52;;;;;;;4.97;3.60;;;15.70;99.90;;;;;;5004686;28;20446;-60
2021/06/08 06:08:21;;;;;;;3.90;3.50;;;15.70;99.90;;;;;;5014601;28;20492;-61
2021/06/08 06:10:47;;;;;;;4.57;4.07;;;15.80;99.90;;;;;;5025283;28;20444;-59
2021/06/08 06:13:18;;;;;;;6.97;3.60;;;15.80;99.90;;;;;;5017555;28;20823;-60
2021/06/08 06:15:47;;;;;;;4.80;3.83;;;15.90;99.90;;;;;;5023192;28;20266;-60
2021/06/08 06:18:15;;;;;;;4.33;3.93;;;15.90;99.90;;;;;;5026281;28;20410;-60
2021/06/08 06:20:42;;;;;;;4.40;4.00;;;15.90;99.90;;;;;;5023349;28;20820;-60
2021/06/08 06:23:09;;;;;;;7.40;4.23;;;15.90;99.90;;;;;;5021313;28;20459;-61
2021/06/08 06:25:35;;;;;;;9.73;4.30;;;15.90;99.90;;;;;;5018085;28;20435;-60
2021/06/08 06:28:00;;;;;;;6.27;5.43;;;16.00;99.90;;;;;;5021389;28;20469;-60
2021/06/08 06:30:27;;;;;;;6.27;4.97;;;16.00;99.90;;;;;;5009330;28;20583;-61
2021/06/08 06:32:52;;;;;;;6.90;5.43;;;16.00;99.90;;;;;;5020664;28;20200;-60
2021/06/08 06:35:18;;;;;;;6.50;5.47;;;16.10;99.90;;;;;;5024878;28;20950;-60
2021/06/08 06:37:46;;;;;;;8.60;6.63;;;16.20;99.90;;;;;;5017932;28;20184;-60
2021/06/08 06:40:16;;;;;;;7.03;6.07;;;16.20;99.90;;;;;;5018691;28;20699;-59
2021/06/08 06:42:54;;;;;;;7.93;5.63;;;16.30;99.90;;;;;;5026389;28;20497;-60
2021/06/08 06:45:21;;;;;;;7.87;5.10;;;16.40;99.90;;;;;;5021042;28;20437;-60
2021/06/08 06:47:48;;;;;;;6.23;5.60;;;16.40;99.90;;;;;;5026777;28;20465;-59
2021/06/08 06:50:14;;;;;;;7.47;5.23;;;16.50;99.90;;;;;;5025846;28;20438;-59
2021/06/08 06:52:43;;;;;;;9.37;7.40;;;16.60;99.90;;;;;;5026376;28;20535;-60
2021/06/08 06:55:10;;;;;;;8.80;6.30;;;16.70;99.90;;;;;;5005435;28;20429;-60
2021/06/08 06:57:41;;;;;;;9.73;7.33;;;16.90;99.90;;;;;;5029895;28;20707;-60
2021/06/08 07:00:08;;;;;;;11.03;7.33;;;17.00;99.90;;;;;;5018496;28;20426;-61
2021/06/08 07:02:35;;;;;;;9.77;7.30;;;17.10;99.90;;;;;;5017205;28;20474;-60
2021/06/08 07:05:01;;;;;;;9.40;7.50;;;17.20;99.90;;;;;;5026504;28;20505;-60
2021/06/08 07:07:28;;;;;;;8.57;6.60;;;17.20;99.90;;;;;;5021194;28;20543;-60
2021/06/08 07:09:55;;;;;;;8.33;6.20;;;17.30;99.90;;;;;;4995380;28;20465;-60
2021/06/08 07:12:21;;;;;;;10.30;7.90;;;17.30;99.90;;;;;;5024901;28;20487;-60
2021/06/08 07:14:49;;;;;;;11.53;7.97;;;17.40;99.90;;;;;;5017632;28;20433;-59
2021/06/08 07:17:16;;;;;;;10.33;7.73;;;17.40;99.90;;;;;;5022830;28;20438;-60
2021/06/08 07:19:44;;;;;;;11.17;7.73;;;17.50;99.90;;;;;;5007791;28;20462;-60
2021/06/08 07:22:12;;;;;;;11.07;8.77;;;17.50;99.90;;;;;;5021163;28;20927;-60
2021/06/08 07:24:44;;;;;;;10.43;8.40;;;17.60;99.90;;;;;;5022540;28;20442;-59
2021/06/08 07:27:13;;;;;;;12.20;9.00;;;17.70;99.90;;;;;;5020482;28;20445;-59
2021/06/08 07:29:40;;;;;;;13.67;9.50;;;17.80;99.90;;;;;;5013119;28;21025;-60
2021/06/08 07:32:13;;;;;;;15.07;10.23;;;17.90;99.90;;;;;;5013783;28;20855;-60
2021/06/08 07:34:49;;;;;;;13.00;10.00;;;18.00;99.90;;;;;;5020404;28;20549;-60
2021/06/08 07:37:19;;;;;;;12.47;9.20;;;18.10;99.90;;;;;;5019017;28;20450;-60
2021/06/08 07:39:50;;;;;;;13.00;9.10;;;18.10;99.90;;;;;;5024778;28;20660;-62
2021/06/08 07:42:22;;;;;;;15.00;11.20;;;18.10;99.90;;;;;;5026171;28;20447;-60
2021/06/08 07:44:58;;;;;;;16.57;11.40;;;18.10;99.90;;;;;;5019433;28;20427;-60
2021/06/08 07:47:26;;;;;;;16.30;11.70;;;18.10;99.90;;;;;;5005720;28;20434;-60
2021/06/08 07:49:54;;;;;;;18.03;12.40;;;18.00;99.90;;;;;;5025034;28;20427;-60
2021/06/08 07:52:21;;;;;;;16.30;11.97;;;17.90;99.90;;;;;;5006786;28;20453;-60
2021/06/08 07:54:48;;;;;;;21.90;13.97;;;17.80;99.90;;;;;;5024474;28;20772;-60
2021/06/08 07:57:14;;;;;;;18.73;11.97;;;17.70;99.90;;;;;;5012095;28;20824;-60
2021/06/08 07:59:41;;;;;;;14.10;11.07;;;17.70;99.90;;;;;;5022024;28;20465;-61
2021/06/08 08:02:09;;;;;;;13.33;10.57;;;17.60;99.90;;;;;;5020486;28;20422;-61
2021/06/08 08:04:50;;;;;;;13.40;10.80;;;17.60;99.90;;;;;;5018589;28;20507;-60
2021/06/08 08:07:22;;;;;;;17.27;9.93;;;17.50;99.90;;;;;;5014547;28;21009;-59
2021/06/08 08:09:49;;;;;;;16.63;10.67;;;17.50;99.90;;;;;;5025221;28;20771;-59
2021/06/08 08:12:15;;;;;;;16.40;9.97;;;17.50;99.90;;;;;;5023321;28;20922;-59
2021/06/08 08:14:43;;;;;;;14.40;10.43;;;17.40;99.90;;;;;;5019678;28;20532;-59
2021/06/08 08:17:13;;;;;;;15.80;11.23;;;17.30;99.90;;;;;;5022660;28;20785;-59
2021/06/08 08:19:40;;;;;;;22.00;10.60;;;17.30;99.90;;;;;;5027780;28;20464;-58
2021/06/08 08:22:07;;;;;;;16.13;10.90;;;17.40;99.90;;;;;;5020942;28;20442;-60
2021/06/08 08:24:34;;;;;;;16.20;11.53;;;17.40;99.90;;;;;;5029364;28;20445;-60
2021/06/08 08:27:02;;;;;;;20.60;11.10;;;17.40;99.90;;;;;;5006380;28;20484;-60
2021/06/08 08:29:27;;;;;;;14.07;9.67;;;17.50;99.90;;;;;;5017120;28;21298;-60
2021/06/08 08:31:54;;;;;;;15.33;11.30;;;17.50;99.90;;;;;;5009097;28;20431;-58
2021/06/08 08:34:19;;;;;;;17.40;10.90;;;17.50;99.90;;;;;;5022859;28;20183;-59
2021/06/08 08:36:45;;;;;;;14.80;11.00;;;17.50;99.90;;;;;;5018304;28;20446;-60
2021/06/08 08:39:12;;;;;;;18.53;11.90;;;17.50;99.90;;;;;;5003427;28;20234;-58
2021/06/08 08:41:40;;;;;;;17.80;11.00;;;17.50;99.90;;;;;;5015629;28;20457;-59
2021/06/08 08:44:07;;;;;;;16.77;11.80;;;17.50;99.90;;;;;;5021106;28;21031;-59
2021/06/08 08:46:36;;;;;;;17.13;12.17;;;17.50;99.90;;;;;;5018155;28;21075;-58
2021/06/08 08:49:04;;;;;;;15.47;11.00;;;17.50;99.90;;;;;;5001921;28;20467;-59
2021/06/08 08:51:31;;;;;;;18.67;12.07;;;17.60;99.90;;;;;;5016500;28;20434;-60
2021/06/08 08:53:59;;;;;;;12.77;10.63;;;17.60;99.90;;;;;;5019862;28;20496;-59
2021/06/08 08:56:25;;;;;;;16.27;10.93;;;17.60;99.90;;;;;;5012710;28;20437;-59
2021/06/08 08:58:52;;;;;;;16.40;11.30;;;17.60;99.90;;;;;;5024532;28;20480;-58
2021/06/08 09:01:17;;;;;;;15.33;11.27;;;17.70;99.90;;;;;;5023530;28;20462;-58
2021/06/08 09:03:43;;;;;;;15.70;11.40;;;17.70;99.90;;;;;;5023116;23;20550;-53
2021/06/08 09:06:11;;;;;;;16.33;11.73;;;17.80;99.90;;;;;;4979098;28;20181;-52
2021/06/08 09:08:39;;;;;;;16.30;12.30;;;17.90;99.90;;;;;;4981027;28;20622;-53
2021/06/08 09:11:07;;;;;;;15.90;11.00;;;17.90;99.90;;;;;;4978116;28;20878;-54
2021/06/08 09:13:33;;;;;;;20.17;11.40;;;18.00;99.90;;;;;;4988838;28;20462;-57
2021/06/08 09:15:59;;;;;;;16.80;11.93;;;18.10;99.90;;;;;;5000325;28;20511;-56
2021/06/08 09:18:25;;;;;;;19.33;13.03;;;18.30;99.90;;;;;;5000105;28;20443;-54
2021/06/08 09:20:52;;;;;;;15.53;12.27;;;18.40;99.90;;;;;;4996387;28;20251;-55
2021/06/08 09:23:25;;;;;;;17.80;12.80;;;18.60;99.90;;;;;;5001272;28;20443;-55
2021/06/08 09:25:52;;;;;;;16.57;11.10;;;18.60;99.90;;;;;;4997699;28;20424;-55
2021/06/08 09:28:24;;;;;;;15.80;11.23;;;18.70;99.90;;;;;;5002349;28;20802;-56
2021/06/08 09:31:05;;;;;;;19.23;11.40;;;18.70;99.90;;;;;;4999673;28;20484;-56
2021/06/08 09:33:38;;;;;;;16.53;10.93;;;18.80;99.90;;;;;;4999453;28;20465;-55
2021/06/08 09:36:13;;;;;;;16.33;11.13;;;18.80;99.90;;;;;;4999187;28;20477;-55
2021/06/08 09:38:51;;;;;;;17.00;11.23;;;18.70;99.90;;;;;;5000284;28;20458;-55
2021/06/08 09:41:19;;;;;;;15.60;11.23;;;18.80;99.90;;;;;;4995370;28;20935;-56
2021/06/08 09:44:02;;;;;;;16.10;12.13;;;18.80;99.90;;;;;;4988370;28;20806;-54
2021/06/08 09:46:29;;;;;;;17.80;11.17;;;18.80;99.90;;;;;;4996645;28;20435;-55
2021/06/08 09:48:58;;;;;;;19.33;12.80;;;18.90;99.90;;;;;;5003771;28;20547;-56
2021/06/08 09:51:26;;;;;;;16.87;11.90;;;18.90;99.90;;;;;;4999066;28;21101;-55
2021/06/08 09:53:52;;;;;;;14.90;12.10;;;19.00;99.90;;;;;;4999007;28;20451;-55
2021/06/08 09:56:20;;;;;;;16.83;11.50;;;19.10;99.90;;;;;;5001160;28;20999;-56
2021/06/08 09:58:47;;;;;;;19.23;12.73;;;19.30;99.90;;;;;;4999467;28;20427;-55
2021/06/08 10:01:17;;;;;;;19.70;11.57;;;19.40;99.90;;;;;;4998671;28;20994;-55
2021/06/08 10:03:46;;;;;;;14.63;11.43;;;19.50;99.90;;;;;;4993547;28;20476;-57
2021/06/08 10:06:14;;;;;;;16.70;13.00;;;19.70;99.90;;;;;;4999597;28;20445;-56
2021/06/08 10:08:50;;;;;;;15.50;11.13;;;19.80;99.90;;;;;;5001858;28;20477;-56
2021/06/08 10:11:23;;;;;;;13.40;10.87;;;20.00;99.90;;;;;;4999098;28;20431;-55
2021/06/08 10:13:52;;;;;;;14.57;10.80;;;20.00;99.90;;;;;;4999807;28;21022;-55
2021/06/08 10:16:31;;;;;;;14.47;11.30;;;20.10;99.90;;;;;;4995972;28;21227;-53
2021/06/08 10:18:58;;;;;;;15.60;11.37;;;20.40;99.90;;;;;;5002747;28;20438;-53
2021/06/08 10:21:46;;;;;;;15.53;12.03;;;20.60;99.90;;;;;;5007051;28;20526;-54
2021/06/08 10:24:20;;;;;;;15.00;12.00;;;20.60;99.90;;;;;;5000094;28;20454;-53
2021/06/08 10:26:52;;;;;;;17.77;12.07;;;20.40;99.90;;;;;;5001821;28;20513;-54
2021/06/08 10:29:20;;;;;;;16.77;11.50;;;20.20;99.90;;;;;;5007451;28;20462;-53
2021/06/08 10:31:46;;;;;;;14.90;11.57;;;20.10;99.90;;;;;;4993395;28;20498;-54
2021/06/08 10:34:12;;;;;;;14.83;10.40;;;20.30;99.90;;;;;;4996729;28;20455;-56
2021/06/08 10:36:40;;;;;;;20.57;11.70;;;20.60;99.90;;;;;;5001690;28;20435;-54
2021/06/08 10:39:12;;;;;;;15.43;11.80;;;20.90;99.90;;;;;;5001026;28;20956;-55
2021/06/08 10:41:40;;;;;;;13.90;11.37;;;21.10;99.90;;;;;;5000144;28;22312;-55
2021/06/08 10:44:07;;;;;;;16.00;11.90;;;21.20;99.90;;;;;;5006655;28;20707;-54
2021/06/08 10:46:44;;;;;;;15.00;12.17;;;21.30;99.90;;;;;;5008986;28;20430;-54
2021/06/08 10:49:10;;;;;;;13.50;11.33;;;21.30;99.90;;;;;;5003025;28;20521;-55
2021/06/08 10:51:37;;;;;;;16.90;12.73;;;21.20;99.70;;;;;;5006129;28;20435;-55
2021/06/08 10:54:15;;;;;;;14.37;12.70;;;21.10;99.50;;;;;;5006800;28;20291;-55
2021/06/08 10:56:57;;;;;;;15.53;11.57;;;21.10;99.70;;;;;;5004898;28;21018;-55
2021/06/08 10:59:37;;;;;;;18.70;13.23;;;21.30;99.90;;;;;;5004685;28;20442;-55
2021/06/08 11:02:05;;;;;;;15.77;12.77;;;21.60;99.20;;;;;;5006810;28;20450;-55
2021/06/08 11:04:54;;;;;;;13.80;11.77;;;21.80;99.00;;;;;;5005216;28;20562;-55
2021/06/08 11:07:52;;;;;;;16.53;12.57;;;22.00;97.90;;;;;;5003656;28;20449;-55
2021/06/08 11:10:27;;;;;;;14.80;11.53;;;22.20;96.80;;;;;;4998884;28;20442;-56
2021/06/08 11:13:08;;;;;;;14.00;11.57;;;22.30;96.10;;;;;;5008815;28;20843;-58
2021/06/08 11:15:37;;;;;;;14.40;11.87;;;22.30;96.60;;;;;;5002523;28;20422;-56
2021/06/08 11:18:27;;;;;;;15.90;12.13;;;22.30;96.80;;;;;;5008936;28;20433;-54
2021/06/08 11:20:58;;;;;;;15.37;12.27;;;22.40;97.70;;;;;;5006252;28;20429;-55
2021/06/08 11:23:31;;;;;;;16.90;11.97;;;22.40;97.50;;;;;;4993522;28;20546;-58
2021/06/08 11:25:57;;;;;;;14.90;12.50;;;22.50;98.00;;;;;;5006750;28;20874;-57
2021/06/08 11:28:38;;;;;;;16.23;12.93;;;22.60;98.20;;;;;;5008431;28;20494;-55
2021/06/08 11:31:04;;;;;;;18.30;12.50;;;22.60;96.90;;;;;;5001607;28;20175;-58
2021/06/08 11:33:33;;;;;;;16.03;12.70;;;22.70;96.40;;;;;;5009784;28;20440;-58
2021/06/08 11:36:17;;;;;;;13.77;11.87;;;22.70;96.20;;;;;;5009411;28;20177;-57
2021/06/08 11:38:44;;;;;;;15.47;11.60;;;22.70;96.30;;;;;;5002960;28;20896;-55
2021/06/08 11:41:10;;;;;;;15.00;11.20;;;22.60;95.10;;;;;;5008697;28;20501;-55
2021/06/08 11:43:36;;;;;;;15.50;12.20;;;22.60;95.10;;;;;;5012043;28;20504;-55
2021/06/08 11:46:04;;;;;;;16.27;12.73;;;22.40;94.90;;;;;;5004234;28;20442;-55
2021/06/08 11:48:35;;;;;;;16.80;12.60;;;22.30;95.00;;;;;;5009274;28;20273;-55
2021/06/08 11:51:23;;;;;;;17.00;13.97;;;22.10;95.30;;;;;;5010980;28;20733;-55
2021/06/08 11:54:04;;;;;;;22.50;12.90;;;21.80;95.60;;;;;;5005607;28;20427;-55
2021/06/08 11:56:57;;;;;;;18.27;12.93;;;21.60;95.70;;;;;;5007250;28;20434;-56
2021/06/08 11:59:24;;;;;;;15.30;12.20;;;21.40;96.70;;;;;;4958028;28;20454;-55
2021/06/08 12:02:11;;;;;;;15.20;12.33;;;21.30;97.50;;;;;;5008922;28;20416;-56
2021/06/08 12:05:05;;;;;;;19.73;14.00;;;21.20;98.00;;;;;;5005259;28;20601;-55
2021/06/08 12:08:05;;;;;;;18.17;13.17;;;21.20;98.20;;;;;;5007757;28;20511;-54
2021/06/08 12:10:36;;;;;;;18.27;13.93;;;21.00;98.60;;;;;;5012338;28;20423;-59
2021/06/08 12:13:03;;;;;;;20.07;13.30;;;20.90;98.70;;;;;;4984867;28;21009;-57
2021/06/08 12:15:37;;;;;;;19.20;13.67;;;20.80;98.50;;;;;;5011576;28;20412;-57
2021/06/08 12:18:09;;;;;;;17.17;14.10;;;20.70;98.50;;;;;;4995431;28;20442;-56
2021/06/08 12:20:42;;;;;;;16.33;13.37;;;20.60;98.60;;;;;;5001747;28;20509;-57
2021/06/08 12:23:09;;;;;;;17.47;13.60;;;20.50;98.30;;;;;;4989788;28;20988;-55
2021/06/08 12:25:36;;;;;;;16.00;12.90;;;20.40;98.60;;;;;;5005937;28;20431;-53
2021/06/08 12:28:08;;;;;;;19.27;14.30;;;20.30;99.30;;;;;;5000886;28;20456;-54
2021/06/08 12:30:36;;;;;;;16.80;12.97;;;20.20;99.90;;;;;;5004882;28;20955;-55
2021/06/08 12:33:04;;;;;;;19.20;14.87;;;20.20;99.90;;;;;;5006758;28;20525;-55
2021/06/08 12:35:42;;;;;;;20.20;14.73;;;20.10;99.90;;;;;;5008373;28;20422;-55
2021/06/08 12:38:20;;;;;;;17.00;13.50;;;20.00;99.70;;;;;;5004017;28;20439;-54
2021/06/08 12:41:03;;;;;;;18.70;13.70;;;19.90;99.80;;;;;;5007360;28;20438;-55
2021/06/08 12:43:39;;;;;;;22.50;15.57;;;19.80;99.90;;;;;;5007674;28;20528;-55
2021/06/08 12:46:05;;;;;;;18.90;13.60;;;19.80;99.90;;;;;;5005553;28;20543;-55
2021/06/08 12:48:31;;;;;;;16.63;13.30;;;19.80;99.90;;;;;;5007193;28;20882;-56
2021/06/08 12:50:56;;;;;;;19.23;13.27;;;20.00;99.90;;;;;;5010247;28;20701;-56